sensor_id;sensor_type;location;lat;lon;timestamp;temperature;humidity
20291;DHT22;10304;51.074;13.754;2023-08-07T00:00:43;18.20;1.00
20291;DHT22;10304;51.074;13.754;2023-08-07T00:03:10;18.20;1.00
20291;DHT22;10304;51.074;13.754;2023-08-07T00:05:38;18.20;1.00
20291;DHT22;10304;51.074;13.754;2023-08-07T00:08:04;18.20;1.00
20291;DHT22;10304;51.074;13.754;2023-08-07T00:10:31;18.30;1.00
20291;DHT22;10304;51.074;13.754;2023-08-07T00:12:58;18.30;1.00
20291;DHT22;10304;51.074;13.754;2023-08-07T00:15:25;18.30;1.00
20291;DHT22;10304;51.074;13.754;2023-08-07T00:17:51;18.30;1.00
20291;DHT22;10304;51.074;13.754;2023-08-07T00:20:18;18.30;1.00
20291;DHT22;10304;51.074;13.754;2023-08-07T00:22:45;18.30;1.00
20291;DHT22;10304;51.074;13.754;2023-08-07T00:25:12;18.20;1.00
20291;DHT22;10304;51.074;13.754;2023-08-07T00:27:39;18.20;1.00
20291;DHT22;10304;51.074;13.754;2023-08-07T00:30:06;18.20;1.00
20291;DHT22;10304;51.074;13.754;2023-08-07T00:32:33;18.20;1.00
20291;DHT22;10304;51.074;13.754;2023-08-07T00:35:00;18.20;1.00
20291;DHT22;10304;51.074;13.754;2023-08-07T00:37:27;18.20;1.00
20291;DHT22;10304;51.074;13.754;2023-08-07T00:39:53;18.20;99.90
20291;DHT22;10304;51.074;13.754;2023-08-07T00:42:20;18.10;1.00
20291;DHT22;10304;51.074;13.754;2023-08-07T00:44:47;18.10;1.00
20291;DHT22;10304;51.074;13.754;2023-08-07T00:47:14;18.20;1.00
20291;DHT22;10304;51.074;13.754;2023-08-07T00:49:40;18.10;1.00
20291;DHT22;10304;51.074;13.754;2023-08-07T00:52:07;18.20;1.00
20291;DHT22;10304;51.074;13.754;2023-08-07T00:54:34;18.20;1.00
20291;DHT22;10304;51.074;13.754;2023-08-07T00:57:12;18.10;1.00
20291;DHT22;10304;51.074;13.754;2023-08-07T00:59:41;18.10;1.00
20291;DHT22;10304;51.074;13.754;2023-08-07T01:02:09;18.10;99.90
20291;DHT22;10304;51.074;13.754;2023-08-07T01:04:36;18.10;1.00
20291;DHT22;10304;51.074;13.754;2023-08-07T01:07:03;18.10;1.00
20291;DHT22;10304;51.074;13.754;2023-08-07T01:09:30;18.10;91.70
20291;DHT22;10304;51.074;13.754;2023-08-07T01:14:52;18.00;99.90
20291;DHT22;10304;51.074;13.754;2023-08-07T01:17:23;17.90;99.90
20291;DHT22;10304;51.074;13.754;2023-08-07T01:19:51;17.80;99.90
20291;DHT22;10304;51.074;13.754;2023-08-07T01:22:19;17.70;1.00
20291;DHT22;10304;51.074;13.754;2023-08-07T01:24:48;17.60;1.00
20291;DHT22;10304;51.074;13.754;2023-08-07T01:35:30;17.40;1.00
20291;DHT22;10304;51.074;13.754;2023-08-07T01:38:00;17.40;1.00
20291;DHT22;10304;51.074;13.754;2023-08-07T01:40:28;17.40;1.00
20291;DHT22;10304;51.074;13.754;2023-08-07T01:42:55;17.40;1.00
20291;DHT22;10304;51.074;13.754;2023-08-07T01:45:26;17.40;1.00
20291;DHT22;10304;51.074;13.754;2023-08-07T01:47:54;17.40;1.00
20291;DHT22;10304;51.074;13.754;2023-08-07T01:50:22;17.40;1.00
20291;DHT22;10304;51.074;13.754;2023-08-07T01:52:49;17.50;1.00
20291;DHT22;10304;51.074;13.754;2023-08-07T01:55:17;17.50;1.00
20291;DHT22;10304;51.074;13.754;2023-08-07T01:57:44;17.40;1.00
20291;DHT22;10304;51.074;13.754;2023-08-07T02:00:11;17.40;1.00
20291;DHT22;10304;51.074;13.754;2023-08-07T02:02:38;17.50;1.00
20291;DHT22;10304;51.074;13.754;2023-08-07T02:05:05;17.50;1.00
20291;DHT22;10304;51.074;13.754;2023-08-07T02:07:32;17.50;1.00
20291;DHT22;10304;51.074;13.754;2023-08-07T02:09:59;17.60;1.00
20291;DHT22;10304;51.074;13.754;2023-08-07T02:12:26;17.50;1.00
20291;DHT22;10304;51.074;13.754;2023-08-07T02:14:54;17.60;1.00
20291;DHT22;10304;51.074;13.754;2023-08-07T02:17:21;17.60;1.00
20291;DHT22;10304;51.074;13.754;2023-08-07T02:19:49;17.70;1.00
20291;DHT22;10304;51.074;13.754;2023-08-07T02:22:16;17.70;1.00
20291;DHT22;10304;51.074;13.754;2023-08-07T02:24:42;17.80;1.00
20291;DHT22;10304;51.074;13.754;2023-08-07T02:27:09;17.80;1.00
20291;DHT22;10304;51.074;13.754;2023-08-07T02:29:36;17.80;1.00
20291;DHT22;10304;51.074;13.754;2023-08-07T02:32:03;17.80;1.00
20291;DHT22;10304;51.074;13.754;2023-08-07T02:34:31;17.80;1.00
20291;DHT22;10304;51.074;13.754;2023-08-07T02:36:58;17.80;1.00
20291;DHT22;10304;51.074;13.754;2023-08-07T02:39:25;17.90;1.00
20291;DHT22;10304;51.074;13.754;2023-08-07T02:41:52;17.90;1.00
20291;DHT22;10304;51.074;13.754;2023-08-07T02:44:19;17.90;1.00
20291;DHT22;10304;51.074;13.754;2023-08-07T02:46:46;17.90;1.00
20291;DHT22;10304;51.074;13.754;2023-08-07T02:49:13;17.90;1.00
20291;DHT22;10304;51.074;13.754;2023-08-07T02:51:40;17.90;1.00
20291;DHT22;10304;51.074;13.754;2023-08-07T02:54:07;17.90;1.00
20291;DHT22;10304;51.074;13.754;2023-08-07T02:56:33;17.90;1.00
20291;DHT22;10304;51.074;13.754;2023-08-07T02:59:00;17.90;1.00
20291;DHT22;10304;51.074;13.754;2023-08-07T03:01:28;17.90;1.00
20291;DHT22;10304;51.074;13.754;2023-08-07T03:03:55;17.90;1.00
20291;DHT22;10304;51.074;13.754;2023-08-07T03:06:22;17.90;1.00
20291;DHT22;10304;51.074;13.754;2023-08-07T03:08:49;17.90;1.00
20291;DHT22;10304;51.074;13.754;2023-08-07T03:11:16;17.80;1.00
20291;DHT22;10304;51.074;13.754;2023-08-07T03:13:43;17.80;1.00
20291;DHT22;10304;51.074;13.754;2023-08-07T03:16:11;17.70;1.00
20291;DHT22;10304;51.074;13.754;2023-08-07T03:18:37;17.70;1.00
20291;DHT22;10304;51.074;13.754;2023-08-07T03:21:04;17.60;1.00
20291;DHT22;10304;51.074;13.754;2023-08-07T03:23:31;17.60;1.00
20291;DHT22;10304;51.074;13.754;2023-08-07T03:26:06;17.50;1.00
20291;DHT22;10304;51.074;13.754;2023-08-07T03:28:44;17.40;99.90
20291;DHT22;10304;51.074;13.754;2023-08-07T03:31:12;17.30;99.90
20291;DHT22;10304;51.074;13.754;2023-08-07T03:33:39;17.20;99.90
20291;DHT22;10304;51.074;13.754;2023-08-07T03:36:06;17.20;99.90
20291;DHT22;10304;51.074;13.754;2023-08-07T03:38:33;17.10;1.00
20291;DHT22;10304;51.074;13.754;2023-08-07T03:40:59;17.10;1.00
20291;DHT22;10304;51.074;13.754;2023-08-07T03:43:26;17.10;1.00
20291;DHT22;10304;51.074;13.754;2023-08-07T03:45:56;17.10;1.00
20291;DHT22;10304;51.074;13.754;2023-08-07T03:48:27;17.20;1.00
20291;DHT22;10304;51.074;13.754;2023-08-07T03:51:05;17.20;1.00
20291;DHT22;10304;51.074;13.754;2023-08-07T03:53:32;17.10;1.00
20291;DHT22;10304;51.074;13.754;2023-08-07T03:55:58;17.20;1.00
20291;DHT22;10304;51.074;13.754;2023-08-07T03:58:25;17.20;1.00
20291;DHT22;10304;51.074;13.754;2023-08-07T04:00:52;17.20;1.00
20291;DHT22;10304;51.074;13.754;2023-08-07T04:03:19;17.20;1.00
20291;DHT22;10304;51.074;13.754;2023-08-07T04:05:46;17.20;1.00
20291;DHT22;10304;51.074;13.754;2023-08-07T04:08:13;17.20;1.00
20291;DHT22;10304;51.074;13.754;2023-08-07T04:10:40;17.20;1.00
20291;DHT22;10304;51.074;13.754;2023-08-07T04:13:06;17.20;1.00
20291;DHT22;10304;51.074;13.754;2023-08-07T04:15:33;17.20;1.00
20291;DHT22;10304;51.074;13.754;2023-08-07T04:18:00;17.20;1.00
20291;DHT22;10304;51.074;13.754;2023-08-07T04:20:27;17.30;1.00
20291;DHT22;10304;51.074;13.754;2023-08-07T04:22:54;17.30;1.00
20291;DHT22;10304;51.074;13.754;2023-08-07T04:25:21;17.30;1.00
20291;DHT22;10304;51.074;13.754;2023-08-07T04:27:47;17.30;1.00
20291;DHT22;10304;51.074;13.754;2023-08-07T04:30:14;17.30;1.00
20291;DHT22;10304;51.074;13.754;2023-08-07T04:32:41;17.30;1.00
20291;DHT22;10304;51.074;13.754;2023-08-07T04:35:08;17.30;1.00
20291;DHT22;10304;51.074;13.754;2023-08-07T04:37:35;17.40;1.00
20291;DHT22;10304;51.074;13.754;2023-08-07T04:40:02;17.40;1.00
20291;DHT22;10304;51.074;13.754;2023-08-07T04:42:28;17.40;1.00
20291;DHT22;10304;51.074;13.754;2023-08-07T04:44:55;17.50;1.00
20291;DHT22;10304;51.074;13.754;2023-08-07T04:47:22;17.50;1.00
20291;DHT22;10304;51.074;13.754;2023-08-07T04:49:49;17.50;1.00
20291;DHT22;10304;51.074;13.754;2023-08-07T04:52:15;17.50;1.00
20291;DHT22;10304;51.074;13.754;2023-08-07T04:54:52;17.50;1.00
20291;DHT22;10304;51.074;13.754;2023-08-07T04:57:19;17.60;1.00
20291;DHT22;10304;51.074;13.754;2023-08-07T04:59:46;17.60;1.00
20291;DHT22;10304;51.074;13.754;2023-08-07T05:02:12;17.70;1.00
20291;DHT22;10304;51.074;13.754;2023-08-07T05:04:39;17.70;1.00
20291;DHT22;10304;51.074;13.754;2023-08-07T05:07:06;17.80;1.00
20291;DHT22;10304;51.074;13.754;2023-08-07T05:09:33;17.80;1.00
20291;DHT22;10304;51.074;13.754;2023-08-07T05:11:59;17.90;1.00
20291;DHT22;10304;51.074;13.754;2023-08-07T05:14:26;17.90;1.00
20291;DHT22;10304;51.074;13.754;2023-08-07T05:16:53;17.90;1.00
20291;DHT22;10304;51.074;13.754;2023-08-07T05:19:20;17.90;1.00
20291;DHT22;10304;51.074;13.754;2023-08-07T05:21:50;17.90;1.00
20291;DHT22;10304;51.074;13.754;2023-08-07T05:24:18;17.90;1.00
20291;DHT22;10304;51.074;13.754;2023-08-07T05:26:45;17.90;1.00
20291;DHT22;10304;51.074;13.754;2023-08-07T05:29:11;17.90;1.00
20291;DHT22;10304;51.074;13.754;2023-08-07T05:31:38;17.90;99.90
20291;DHT22;10304;51.074;13.754;2023-08-07T05:34:05;18.00;99.90
20291;DHT22;10304;51.074;13.754;2023-08-07T05:36:33;18.00;99.90
20291;DHT22;10304;51.074;13.754;2023-08-07T05:38:59;17.90;99.90
20291;DHT22;10304;51.074;13.754;2023-08-07T05:41:26;18.00;99.90
20291;DHT22;10304;51.074;13.754;2023-08-07T05:43:53;18.00;99.90
20291;DHT22;10304;51.074;13.754;2023-08-07T05:46:20;18.00;99.90
20291;DHT22;10304;51.074;13.754;2023-08-07T05:48:46;18.00;99.90
20291;DHT22;10304;51.074;13.754;2023-08-07T05:51:13;18.10;99.90
20291;DHT22;10304;51.074;13.754;2023-08-07T05:53:40;18.10;99.90
20291;DHT22;10304;51.074;13.754;2023-08-07T05:56:06;18.20;99.90
20291;DHT22;10304;51.074;13.754;2023-08-07T05:58:33;18.20;99.90
20291;DHT22;10304;51.074;13.754;2023-08-07T06:01:00;18.20;99.90
20291;DHT22;10304;51.074;13.754;2023-08-07T06:03:27;18.30;12.60
20291;DHT22;10304;51.074;13.754;2023-08-07T06:05:54;18.30;1.00
20291;DHT22;10304;51.074;13.754;2023-08-07T06:08:21;18.30;64.80
20291;DHT22;10304;51.074;13.754;2023-08-07T06:10:48;18.40;1.00
20291;DHT22;10304;51.074;13.754;2023-08-07T06:13:14;18.40;1.00
20291;DHT22;10304;51.074;13.754;2023-08-07T06:16:00;18.40;1.00
20291;DHT22;10304;51.074;13.754;2023-08-07T06:18:26;18.40;1.00
20291;DHT22;10304;51.074;13.754;2023-08-07T06:20:53;18.40;1.00
20291;DHT22;10304;51.074;13.754;2023-08-07T06:23:20;18.50;1.00
20291;DHT22;10304;51.074;13.754;2023-08-07T06:25:46;18.50;1.00
20291;DHT22;10304;51.074;13.754;2023-08-07T06:28:13;18.50;33.90
20291;DHT22;10304;51.074;13.754;2023-08-07T06:30:40;18.50;99.90
20291;DHT22;10304;51.074;13.754;2023-08-07T06:33:07;18.50;99.90
20291;DHT22;10304;51.074;13.754;2023-08-07T06:35:38;18.50;99.90
20291;DHT22;10304;51.074;13.754;2023-08-07T06:38:06;18.50;1.00
20291;DHT22;10304;51.074;13.754;2023-08-07T06:40:35;18.50;99.90
20291;DHT22;10304;51.074;13.754;2023-08-07T06:43:02;18.50;99.90
20291;DHT22;10304;51.074;13.754;2023-08-07T06:45:28;18.60;99.90
20291;DHT22;10304;51.074;13.754;2023-08-07T06:47:55;18.60;1.00
20291;DHT22;10304;51.074;13.754;2023-08-07T06:50:23;18.60;1.00
20291;DHT22;10304;51.074;13.754;2023-08-07T06:52:50;18.60;99.90
20291;DHT22;10304;51.074;13.754;2023-08-07T06:55:17;18.70;99.90
20291;DHT22;10304;51.074;13.754;2023-08-07T06:57:45;18.70;1.00
20291;DHT22;10304;51.074;13.754;2023-08-07T07:00:12;18.70;99.90
20291;DHT22;10304;51.074;13.754;2023-08-07T07:02:39;18.80;1.00
20291;DHT22;10304;51.074;13.754;2023-08-07T07:05:06;18.80;1.00
20291;DHT22;10304;51.074;13.754;2023-08-07T07:07:33;18.90;1.00
20291;DHT22;10304;51.074;13.754;2023-08-07T07:09:59;18.90;1.00
20291;DHT22;10304;51.074;13.754;2023-08-07T07:12:27;18.90;1.00
20291;DHT22;10304;51.074;13.754;2023-08-07T07:14:54;19.00;99.90
20291;DHT22;10304;51.074;13.754;2023-08-07T07:17:22;19.10;1.00
20291;DHT22;10304;51.074;13.754;2023-08-07T07:19:48;19.10;1.00
20291;DHT22;10304;51.074;13.754;2023-08-07T07:22:15;19.20;99.90
20291;DHT22;10304;51.074;13.754;2023-08-07T07:24:42;19.20;1.00
20291;DHT22;10304;51.074;13.754;2023-08-07T07:27:09;19.20;1.00
20291;DHT22;10304;51.074;13.754;2023-08-07T07:29:36;19.20;1.00
20291;DHT22;10304;51.074;13.754;2023-08-07T07:32:03;19.20;49.70
20291;DHT22;10304;51.074;13.754;2023-08-07T07:34:30;19.20;99.90
20291;DHT22;10304;51.074;13.754;2023-08-07T07:36:57;19.20;99.90
20291;DHT22;10304;51.074;13.754;2023-08-07T07:39:23;19.20;1.00
20291;DHT22;10304;51.074;13.754;2023-08-07T07:41:50;19.20;1.00
20291;DHT22;10304;51.074;13.754;2023-08-07T07:44:17;19.30;1.00
20291;DHT22;10304;51.074;13.754;2023-08-07T07:46:44;19.40;1.00
20291;DHT22;10304;51.074;13.754;2023-08-07T07:49:11;19.50;1.00
20291;DHT22;10304;51.074;13.754;2023-08-07T07:51:38;19.50;86.30
20291;DHT22;10304;51.074;13.754;2023-08-07T07:54:05;19.50;1.00
20291;DHT22;10304;51.074;13.754;2023-08-07T07:56:34;19.60;1.00
20291;DHT22;10304;51.074;13.754;2023-08-07T07:59:01;19.50;1.00
20291;DHT22;10304;51.074;13.754;2023-08-07T08:01:28;19.60;1.00
20291;DHT22;10304;51.074;13.754;2023-08-07T08:03:55;19.60;1.00
20291;DHT22;10304;51.074;13.754;2023-08-07T08:06:22;19.60;1.00
20291;DHT22;10304;51.074;13.754;2023-08-07T08:08:48;19.70;1.00
20291;DHT22;10304;51.074;13.754;2023-08-07T08:11:15;19.80;1.00
20291;DHT22;10304;51.074;13.754;2023-08-07T08:13:42;19.80;99.90
20291;DHT22;10304;51.074;13.754;2023-08-07T08:16:09;19.90;99.90
20291;DHT22;10304;51.074;13.754;2023-08-07T08:18:36;19.90;99.90
20291;DHT22;10304;51.074;13.754;2023-08-07T08:21:03;19.90;99.90
20291;DHT22;10304;51.074;13.754;2023-08-07T08:23:30;20.00;1.00
20291;DHT22;10304;51.074;13.754;2023-08-07T08:25:57;20.00;1.00
20291;DHT22;10304;51.074;13.754;2023-08-07T08:28:23;20.10;1.00
20291;DHT22;10304;51.074;13.754;2023-08-07T08:30:51;20.10;1.00
20291;DHT22;10304;51.074;13.754;2023-08-07T08:33:18;20.00;1.00
20291;DHT22;10304;51.074;13.754;2023-08-07T08:35:45;20.00;1.00
20291;DHT22;10304;51.074;13.754;2023-08-07T08:38:11;20.00;1.00
20291;DHT22;10304;51.074;13.754;2023-08-07T08:40:38;20.00;1.00
20291;DHT22;10304;51.074;13.754;2023-08-07T08:43:06;20.00;1.00
20291;DHT22;10304;51.074;13.754;2023-08-07T08:45:33;20.00;1.00
20291;DHT22;10304;51.074;13.754;2023-08-07T08:48:03;20.10;1.00
20291;DHT22;10304;51.074;13.754;2023-08-07T08:50:32;20.10;1.00
20291;DHT22;10304;51.074;13.754;2023-08-07T08:52:59;20.10;1.00
20291;DHT22;10304;51.074;13.754;2023-08-07T08:55:27;20.30;1.00
20291;DHT22;10304;51.074;13.754;2023-08-07T08:57:54;20.40;1.00
20291;DHT22;10304;51.074;13.754;2023-08-07T09:00:22;20.50;1.00
20291;DHT22;10304;51.074;13.754;2023-08-07T09:02:52;20.60;99.90
20291;DHT22;10304;51.074;13.754;2023-08-07T09:05:20;20.60;49.70
20291;DHT22;10304;51.074;13.754;2023-08-07T09:07:48;20.60;1.00
20291;DHT22;10304;51.074;13.754;2023-08-07T09:10:16;20.60;1.00
20291;DHT22;10304;51.074;13.754;2023-08-07T09:12:53;20.60;1.00
20291;DHT22;10304;51.074;13.754;2023-08-07T09:15:22;20.60;1.00
20291;DHT22;10304;51.074;13.754;2023-08-07T09:17:49;20.70;99.90
20291;DHT22;10304;51.074;13.754;2023-08-07T09:20:17;20.70;1.00
20291;DHT22;10304;51.074;13.754;2023-08-07T09:22:46;20.80;1.00
20291;DHT22;10304;51.074;13.754;2023-08-07T09:25:13;20.90;1.00
20291;DHT22;10304;51.074;13.754;2023-08-07T09:27:40;21.00;1.00
20291;DHT22;10304;51.074;13.754;2023-08-07T09:30:08;21.10;1.00
20291;DHT22;10304;51.074;13.754;2023-08-07T09:32:36;21.20;1.00
20291;DHT22;10304;51.074;13.754;2023-08-07T09:35:04;21.20;1.00
20291;DHT22;10304;51.074;13.754;2023-08-07T09:37:31;21.30;1.00
20291;DHT22;10304;51.074;13.754;2023-08-07T09:40:01;21.30;1.00
20291;DHT22;10304;51.074;13.754;2023-08-07T09:42:31;21.30;1.00
20291;DHT22;10304;51.074;13.754;2023-08-07T09:45:02;21.40;1.00
20291;DHT22;10304;51.074;13.754;2023-08-07T09:47:29;21.50;1.00
20291;DHT22;10304;51.074;13.754;2023-08-07T09:49:56;21.60;99.90
20291;DHT22;10304;51.074;13.754;2023-08-07T09:52:24;21.60;99.90
20291;DHT22;10304;51.074;13.754;2023-08-07T09:54:56;21.60;99.90
20291;DHT22;10304;51.074;13.754;2023-08-07T09:57:23;21.60;99.90
20291;DHT22;10304;51.074;13.754;2023-08-07T09:59:52;21.70;99.90
20291;DHT22;10304;51.074;13.754;2023-08-07T10:02:29;21.70;99.90
20291;DHT22;10304;51.074;13.754;2023-08-07T10:04:56;21.80;99.90
20291;DHT22;10304;51.074;13.754;2023-08-07T10:07:30;21.80;99.90
20291;DHT22;10304;51.074;13.754;2023-08-07T10:10:02;21.70;99.90
20291;DHT22;10304;51.074;13.754;2023-08-07T10:12:29;21.70;99.90
20291;DHT22;10304;51.074;13.754;2023-08-07T10:14:56;21.60;99.90
20291;DHT22;10304;51.074;13.754;2023-08-07T10:17:24;21.50;99.90
20291;DHT22;10304;51.074;13.754;2023-08-07T10:19:52;21.50;99.90
20291;DHT22;10304;51.074;13.754;2023-08-07T10:22:19;21.40;99.90
20291;DHT22;10304;51.074;13.754;2023-08-07T10:24:48;21.40;99.90
20291;DHT22;10304;51.074;13.754;2023-08-07T10:27:17;21.40;99.90
20291;DHT22;10304;51.074;13.754;2023-08-07T10:29:46;21.40;99.90
20291;DHT22;10304;51.074;13.754;2023-08-07T10:32:15;21.40;1.00
20291;DHT22;10304;51.074;13.754;2023-08-07T10:34:47;21.30;1.00
20291;DHT22;10304;51.074;13.754;2023-08-07T10:40:02;20.80;1.00
20291;DHT22;10304;51.074;13.754;2023-08-07T10:42:56;20.50;99.90
20291;DHT22;10304;51.074;13.754;2023-08-07T10:45:25;20.40;1.00
20291;DHT22;10304;51.074;13.754;2023-08-07T10:48:02;20.50;99.90
20291;DHT22;10304;51.074;13.754;2023-08-07T10:50:35;20.60;1.00
20291;DHT22;10304;51.074;13.754;2023-08-07T10:53:03;20.70;1.00
20291;DHT22;10304;51.074;13.754;2023-08-07T10:55:44;20.80;1.00
20291;DHT22;10304;51.074;13.754;2023-08-07T10:58:26;20.80;1.00
20291;DHT22;10304;51.074;13.754;2023-08-07T11:04:00;20.60;1.00
20291;DHT22;10304;51.074;13.754;2023-08-07T11:06:29;20.60;1.00
20291;DHT22;10304;51.074;13.754;2023-08-07T11:08:58;20.70;1.00
20291;DHT22;10304;51.074;13.754;2023-08-07T11:11:27;20.80;1.00
20291;DHT22;10304;51.074;13.754;2023-08-07T11:13:54;20.90;99.90
20291;DHT22;10304;51.074;13.754;2023-08-07T11:16:20;21.00;99.90
20291;DHT22;10304;51.074;13.754;2023-08-07T11:18:49;21.20;99.90
20291;DHT22;10304;51.074;13.754;2023-08-07T11:21:16;21.20;1.00
20291;DHT22;10304;51.074;13.754;2023-08-07T11:23:42;21.30;1.00
20291;DHT22;10304;51.074;13.754;2023-08-07T11:26:11;21.50;1.00
20291;DHT22;10304;51.074;13.754;2023-08-07T11:28:37;21.50;1.00
20291;DHT22;10304;51.074;13.754;2023-08-07T11:31:04;21.60;1.00
20291;DHT22;10304;51.074;13.754;2023-08-07T11:33:31;21.50;1.00
20291;DHT22;10304;51.074;13.754;2023-08-07T11:35:58;21.40;1.00
20291;DHT22;10304;51.074;13.754;2023-08-07T11:38:29;21.30;1.00
20291;DHT22;10304;51.074;13.754;2023-08-07T11:41:03;21.00;1.00
20291;DHT22;10304;51.074;13.754;2023-08-07T11:43:30;20.60;1.00
20291;DHT22;10304;51.074;13.754;2023-08-07T11:45:59;20.20;99.90
20291;DHT22;10304;51.074;13.754;2023-08-07T11:48:27;19.90;3.60
20291;DHT22;10304;51.074;13.754;2023-08-07T11:50:56;19.70;1.00
20291;DHT22;10304;51.074;13.754;2023-08-07T11:53:25;19.50;1.00
20291;DHT22;10304;51.074;13.754;2023-08-07T11:55:58;19.30;99.90
20291;DHT22;10304;51.074;13.754;2023-08-07T11:58:27;19.30;88.60
20291;DHT22;10304;51.074;13.754;2023-08-07T12:00:54;19.20;99.90
20291;DHT22;10304;51.074;13.754;2023-08-07T12:03:32;19.20;7.00
20291;DHT22;10304;51.074;13.754;2023-08-07T12:06:02;19.20;6.40
20291;DHT22;10304;51.074;13.754;2023-08-07T12:08:38;19.20;99.90
20291;DHT22;10304;51.074;13.754;2023-08-07T12:11:06;19.10;1.00
20291;DHT22;10304;51.074;13.754;2023-08-07T12:13:33;19.20;1.00
20291;DHT22;10304;51.074;13.754;2023-08-07T12:16:02;19.40;1.00
20291;DHT22;10304;51.074;13.754;2023-08-07T12:18:32;19.70;99.90
20291;DHT22;10304;51.074;13.754;2023-08-07T12:21:01;20.20;99.90
20291;DHT22;10304;51.074;13.754;2023-08-07T12:23:28;20.60;99.90
20291;DHT22;10304;51.074;13.754;2023-08-07T12:25:55;21.10;1.00
20291;DHT22;10304;51.074;13.754;2023-08-07T12:28:22;21.30;99.90
20291;DHT22;10304;51.074;13.754;2023-08-07T12:30:51;21.50;1.00
20291;DHT22;10304;51.074;13.754;2023-08-07T12:33:18;21.50;99.90
20291;DHT22;10304;51.074;13.754;2023-08-07T12:35:45;21.50;1.00
20291;DHT22;10304;51.074;13.754;2023-08-07T12:38:12;21.50;1.00
20291;DHT22;10304;51.074;13.754;2023-08-07T12:40:41;21.50;1.00
20291;DHT22;10304;51.074;13.754;2023-08-07T12:43:10;21.50;99.90
20291;DHT22;10304;51.074;13.754;2023-08-07T12:45:37;21.30;99.90
20291;DHT22;10304;51.074;13.754;2023-08-07T12:48:06;21.20;99.90
20291;DHT22;10304;51.074;13.754;2023-08-07T12:50:34;21.00;99.90
20291;DHT22;10304;51.074;13.754;2023-08-07T12:53:01;20.90;99.90
20291;DHT22;10304;51.074;13.754;2023-08-07T12:55:28;21.00;1.00
20291;DHT22;10304;51.074;13.754;2023-08-07T12:57:56;21.00;1.00
20291;DHT22;10304;51.074;13.754;2023-08-07T13:00:23;21.00;76.40
20291;DHT22;10304;51.074;13.754;2023-08-07T13:02:50;21.00;1.00
20291;DHT22;10304;51.074;13.754;2023-08-07T13:05:19;21.10;1.00
20291;DHT22;10304;51.074;13.754;2023-08-07T13:07:46;21.10;1.00
20291;DHT22;10304;51.074;13.754;2023-08-07T13:10:15;21.00;99.90
20291;DHT22;10304;51.074;13.754;2023-08-07T13:12:43;20.70;1.00
20291;DHT22;10304;51.074;13.754;2023-08-07T13:15:15;20.40;99.90
20291;DHT22;10304;51.074;13.754;2023-08-07T13:17:43;20.10;1.00
20291;DHT22;10304;51.074;13.754;2023-08-07T13:20:11;20.00;99.90
20291;DHT22;10304;51.074;13.754;2023-08-07T13:22:41;19.90;99.90
20291;DHT22;10304;51.074;13.754;2023-08-07T13:25:10;19.90;99.90
20291;DHT22;10304;51.074;13.754;2023-08-07T13:27:37;20.10;99.90
20291;DHT22;10304;51.074;13.754;2023-08-07T13:30:06;20.30;1.00
20291;DHT22;10304;51.074;13.754;2023-08-07T13:32:33;20.40;99.90
20291;DHT22;10304;51.074;13.754;2023-08-07T13:35:00;20.50;1.00
20291;DHT22;10304;51.074;13.754;2023-08-07T13:37:27;20.60;1.00
20291;DHT22;10304;51.074;13.754;2023-08-07T13:39:53;20.80;99.90
20291;DHT22;10304;51.074;13.754;2023-08-07T13:42:23;20.90;1.00
20291;DHT22;10304;51.074;13.754;2023-08-07T13:44:50;21.00;1.00
20291;DHT22;10304;51.074;13.754;2023-08-07T13:47:17;21.00;99.90
20291;DHT22;10304;51.074;13.754;2023-08-07T13:49:46;20.90;99.90
20291;DHT22;10304;51.074;13.754;2023-08-07T13:52:14;20.90;99.90
20291;DHT22;10304;51.074;13.754;2023-08-07T13:54:41;20.80;1.00
20291;DHT22;10304;51.074;13.754;2023-08-07T13:57:08;20.70;1.00
20291;DHT22;10304;51.074;13.754;2023-08-07T13:59:35;20.70;1.00
20291;DHT22;10304;51.074;13.754;2023-08-07T14:02:02;20.60;74.10
20291;DHT22;10304;51.074;13.754;2023-08-07T14:04:28;20.50;99.90
20291;DHT22;10304;51.074;13.754;2023-08-07T14:06:55;20.20;99.90
20291;DHT22;10304;51.074;13.754;2023-08-07T14:09:22;19.90;41.10
20291;DHT22;10304;51.074;13.754;2023-08-07T14:11:49;19.80;1.00
20291;DHT22;10304;51.074;13.754;2023-08-07T14:14:16;19.60;1.00
20291;DHT22;10304;51.074;13.754;2023-08-07T14:16:43;19.30;99.90
20291;DHT22;10304;51.074;13.754;2023-08-07T14:19:10;19.00;99.90
20291;DHT22;10304;51.074;13.754;2023-08-07T14:21:37;18.80;19.60
20291;DHT22;10304;51.074;13.754;2023-08-07T14:24:05;18.60;1.00
20291;DHT22;10304;51.074;13.754;2023-08-07T14:26:32;18.40;99.90
20291;DHT22;10304;51.074;13.754;2023-08-07T14:28:59;18.30;1.00
20291;DHT22;10304;51.074;13.754;2023-08-07T14:31:26;18.20;99.90
20291;DHT22;10304;51.074;13.754;2023-08-07T14:33:53;18.10;99.90
20291;DHT22;10304;51.074;13.754;2023-08-07T14:36:21;18.10;99.90
20291;DHT22;10304;51.074;13.754;2023-08-07T14:38:47;18.10;99.90
20291;DHT22;10304;51.074;13.754;2023-08-07T14:41:14;18.20;99.90
20291;DHT22;10304;51.074;13.754;2023-08-07T14:43:41;18.20;1.00
20291;DHT22;10304;51.074;13.754;2023-08-07T14:46:08;18.40;1.00
20291;DHT22;10304;51.074;13.754;2023-08-07T14:48:34;18.40;1.00
20291;DHT22;10304;51.074;13.754;2023-08-07T14:51:01;18.60;1.00
20291;DHT22;10304;51.074;13.754;2023-08-07T14:53:28;18.70;1.00
20291;DHT22;10304;51.074;13.754;2023-08-07T14:55:55;18.80;99.90
20291;DHT22;10304;51.074;13.754;2023-08-07T14:58:21;18.90;99.90
20291;DHT22;10304;51.074;13.754;2023-08-07T15:00:48;19.00;99.90
20291;DHT22;10304;51.074;13.754;2023-08-07T15:03:16;19.00;91.80
20291;DHT22;10304;51.074;13.754;2023-08-07T15:05:43;19.10;1.00
20291;DHT22;10304;51.074;13.754;2023-08-07T15:08:10;19.10;1.00
20291;DHT22;10304;51.074;13.754;2023-08-07T15:10:37;19.10;1.00
20291;DHT22;10304;51.074;13.754;2023-08-07T15:13:06;19.10;1.00
20291;DHT22;10304;51.074;13.754;2023-08-07T15:15:33;19.10;1.00
20291;DHT22;10304;51.074;13.754;2023-08-07T15:18:00;19.10;1.00
20291;DHT22;10304;51.074;13.754;2023-08-07T15:20:30;18.90;1.00
20291;DHT22;10304;51.074;13.754;2023-08-07T15:22:57;18.80;1.00
20291;DHT22;10304;51.074;13.754;2023-08-07T15:25:24;18.60;1.00
20291;DHT22;10304;51.074;13.754;2023-08-07T15:27:50;18.50;99.90
20291;DHT22;10304;51.074;13.754;2023-08-07T15:30:18;18.40;99.90
20291;DHT22;10304;51.074;13.754;2023-08-07T15:32:44;18.30;99.90
20291;DHT22;10304;51.074;13.754;2023-08-07T15:35:11;18.20;99.90
20291;DHT22;10304;51.074;13.754;2023-08-07T15:37:38;18.10;93.90
20291;DHT22;10304;51.074;13.754;2023-08-07T15:40:05;18.10;99.90
20291;DHT22;10304;51.074;13.754;2023-08-07T15:42:32;18.00;99.90
20291;DHT22;10304;51.074;13.754;2023-08-07T15:44:59;18.00;99.90